sensor_id;sensor_type;location;lat;lon;timestamp;P1;durP1;ratioP1;P2;durP2;ratioP2
3405;SDS011;10008;48.682;9.016;2022-12-18T00:00:46;65.88;;;29.65;;
3405;SDS011;10008;48.682;9.016;2022-12-18T00:03:13;62.67;;;29.88;;
3405;SDS011;10008;48.682;9.016;2022-12-18T00:05:46;60.85;;;29.98;;
3405;SDS011;10008;48.682;9.016;2022-12-18T00:08:13;57.25;;;30.40;;
3405;SDS011;10008;48.682;9.016;2022-12-18T00:10:39;60.40;;;29.48;;
3405;SDS011;10008;48.682;9.016;2022-12-18T00:13:05;58.70;;;28.33;;
3405;SDS011;10008;48.682;9.016;2022-12-18T00:15:33;56.27;;;27.03;;
3405;SDS011;10008;48.682;9.016;2022-12-18T00:17:59;58.53;;;27.38;;
3405;SDS011;10008;48.682;9.016;2022-12-18T00:20:25;57.97;;;27.17;;
3405;SDS011;10008;48.682;9.016;2022-12-18T00:22:53;55.30;;;26.23;;
3405;SDS011;10008;48.682;9.016;2022-12-18T00:25:19;63.10;;;28.45;;
3405;SDS011;10008;48.682;9.016;2022-12-18T00:27:48;62.13;;;29.40;;
3405;SDS011;10008;48.682;9.016;2022-12-18T00:30:14;58.13;;;28.00;;
3405;SDS011;10008;48.682;9.016;2022-12-18T00:32:40;61.33;;;29.43;;
3405;SDS011;10008;48.682;9.016;2022-12-18T00:35:06;61.33;;;29.33;;
3405;SDS011;10008;48.682;9.016;2022-12-18T00:37:35;64.60;;;28.30;;
3405;SDS011;10008;48.682;9.016;2022-12-18T00:40:01;61.50;;;30.52;;
3405;SDS011;10008;48.682;9.016;2022-12-18T00:42:28;56.30;;;28.63;;
3405;SDS011;10008;48.682;9.016;2022-12-18T00:45:12;58.20;;;28.65;;
3405;SDS011;10008;48.682;9.016;2022-12-18T00:47:38;56.37;;;26.17;;
3405;SDS011;10008;48.682;9.016;2022-12-18T00:50:05;52.30;;;25.25;;
3405;SDS011;10008;48.682;9.016;2022-12-18T00:52:31;51.35;;;24.52;;
3405;SDS011;10008;48.682;9.016;2022-12-18T00:54:57;50.33;;;25.43;;
3405;SDS011;10008;48.682;9.016;2022-12-18T00:57:22;58.20;;;25.93;;
3405;SDS011;10008;48.682;9.016;2022-12-18T00:59:48;56.47;;;26.43;;
3405;SDS011;10008;48.682;9.016;2022-12-18T01:02:14;53.83;;;27.40;;
3405;SDS011;10008;48.682;9.016;2022-12-18T01:04:39;52.90;;;25.37;;
3405;SDS011;10008;48.682;9.016;2022-12-18T01:07:08;53.60;;;24.02;;
3405;SDS011;10008;48.682;9.016;2022-12-18T01:09:33;51.47;;;25.27;;
3405;SDS011;10008;48.682;9.016;2022-12-18T01:11:59;55.30;;;24.73;;
3405;SDS011;10008;48.682;9.016;2022-12-18T01:14:25;56.33;;;26.93;;
3405;SDS011;10008;48.682;9.016;2022-12-18T01:16:51;59.33;;;28.83;;
3405;SDS011;10008;48.682;9.016;2022-12-18T01:19:17;61.30;;;28.30;;
3405;SDS011;10008;48.682;9.016;2022-12-18T01:21:45;52.40;;;26.05;;
3405;SDS011;10008;48.682;9.016;2022-12-18T01:24:12;47.40;;;23.48;;
3405;SDS011;10008;48.682;9.016;2022-12-18T01:26:38;51.13;;;25.10;;
3405;SDS011;10008;48.682;9.016;2022-12-18T01:29:07;53.20;;;24.17;;
3405;SDS011;10008;48.682;9.016;2022-12-18T01:31:33;50.70;;;24.98;;
3405;SDS011;10008;48.682;9.016;2022-12-18T01:34:01;55.33;;;26.35;;
3405;SDS011;10008;48.682;9.016;2022-12-18T01:36:29;52.50;;;25.60;;
3405;SDS011;10008;48.682;9.016;2022-12-18T01:38:58;54.70;;;26.05;;
3405;SDS011;10008;48.682;9.016;2022-12-18T01:41:27;59.33;;;27.95;;
3405;SDS011;10008;48.682;9.016;2022-12-18T01:50:10;59.20;;;26.48;;
3405;SDS011;10008;48.682;9.016;2022-12-18T01:52:42;53.10;;;24.40;;
3405;SDS011;10008;48.682;9.016;2022-12-18T01:55:09;53.58;;;25.55;;
3405;SDS011;10008;48.682;9.016;2022-12-18T01:57:36;52.17;;;24.27;;
3405;SDS011;10008;48.682;9.016;2022-12-18T02:00:05;51.85;;;24.15;;
3405;SDS011;10008;48.682;9.016;2022-12-18T02:02:42;54.80;;;25.50;;
3405;SDS011;10008;48.682;9.016;2022-12-18T02:05:11;54.47;;;26.05;;
3405;SDS011;10008;48.682;9.016;2022-12-18T02:07:47;61.95;;;26.05;;
3405;SDS011;10008;48.682;9.016;2022-12-18T02:10:39;57.78;;;27.08;;
3405;SDS011;10008;48.682;9.016;2022-12-18T02:15:51;54.88;;;24.77;;
3405;SDS011;10008;48.682;9.016;2022-12-18T02:18:23;53.53;;;24.45;;
3405;SDS011;10008;48.682;9.016;2022-12-18T02:21:00;48.22;;;23.73;;
3405;SDS011;10008;48.682;9.016;2022-12-18T02:26:23;52.03;;;27.02;;
3405;SDS011;10008;48.682;9.016;2022-12-18T02:28:56;49.67;;;26.02;;
3405;SDS011;10008;48.682;9.016;2022-12-18T02:31:30;52.58;;;25.45;;
3405;SDS011;10008;48.682;9.016;2022-12-18T02:34:01;54.92;;;26.00;;
3405;SDS011;10008;48.682;9.016;2022-12-18T02:36:34;55.85;;;26.17;;
3405;SDS011;10008;48.682;9.016;2022-12-18T02:39:03;58.53;;;27.50;;
3405;SDS011;10008;48.682;9.016;2022-12-18T02:41:35;53.67;;;26.27;;
3405;SDS011;10008;48.682;9.016;2022-12-18T02:44:06;56.60;;;27.00;;
3405;SDS011;10008;48.682;9.016;2022-12-18T02:46:35;52.20;;;24.95;;
3405;SDS011;10008;48.682;9.016;2022-12-18T02:54:52;53.30;;;25.13;;
3405;SDS011;10008;48.682;9.016;2022-12-18T03:00:15;49.33;;;24.70;;
3405;SDS011;10008;48.682;9.016;2022-12-18T03:05:32;48.97;;;24.67;;
3405;SDS011;10008;48.682;9.016;2022-12-18T03:08:14;48.90;;;24.67;;
3405;SDS011;10008;48.682;9.016;2022-12-18T03:13:34;47.58;;;23.00;;
3405;SDS011;10008;48.682;9.016;2022-12-18T03:16:22;57.10;;;25.50;;
3405;SDS011;10008;48.682;9.016;2022-12-18T03:18:54;49.90;;;23.35;;
3405;SDS011;10008;48.682;9.016;2022-12-18T03:21:26;43.60;;;22.33;;
3405;SDS011;10008;48.682;9.016;2022-12-18T03:23:57;48.55;;;23.65;;
3405;SDS011;10008;48.682;9.016;2022-12-18T03:26:25;45.22;;;22.38;;
3405;SDS011;10008;48.682;9.016;2022-12-18T03:28:59;45.15;;;22.42;;
3405;SDS011;10008;48.682;9.016;2022-12-18T03:31:29;46.30;;;22.58;;
3405;SDS011;10008;48.682;9.016;2022-12-18T03:34:03;44.40;;;23.25;;
3405;SDS011;10008;48.682;9.016;2022-12-18T03:36:39;45.67;;;21.95;;
3405;SDS011;10008;48.682;9.016;2022-12-18T03:39:06;45.85;;;22.15;;
3405;SDS011;10008;48.682;9.016;2022-12-18T03:49:35;47.78;;;22.90;;
3405;SDS011;10008;48.682;9.016;2022-12-18T03:52:08;47.20;;;22.25;;
3405;SDS011;10008;48.682;9.016;2022-12-18T03:54:37;44.53;;;20.38;;
3405;SDS011;10008;48.682;9.016;2022-12-18T03:57:14;43.00;;;21.55;;
3405;SDS011;10008;48.682;9.016;2022-12-18T03:59:49;42.55;;;20.15;;
3405;SDS011;10008;48.682;9.016;2022-12-18T04:02:21;40.55;;;20.60;;
3405;SDS011;10008;48.682;9.016;2022-12-18T04:04:50;44.63;;;20.92;;
3405;SDS011;10008;48.682;9.016;2022-12-18T04:07:19;41.13;;;20.10;;
3405;SDS011;10008;48.682;9.016;2022-12-18T04:09:47;44.33;;;20.17;;
3405;SDS011;10008;48.682;9.016;2022-12-18T04:12:14;45.75;;;21.65;;
3405;SDS011;10008;48.682;9.016;2022-12-18T04:14:40;41.58;;;19.20;;
3405;SDS011;10008;48.682;9.016;2022-12-18T04:17:07;45.38;;;20.90;;
3405;SDS011;10008;48.682;9.016;2022-12-18T04:19:33;40.87;;;19.97;;
3405;SDS011;10008;48.682;9.016;2022-12-18T04:22:00;42.10;;;19.02;;
3405;SDS011;10008;48.682;9.016;2022-12-18T04:24:29;48.70;;;22.33;;
3405;SDS011;10008;48.682;9.016;2022-12-18T04:27:15;46.83;;;20.10;;
3405;SDS011;10008;48.682;9.016;2022-12-18T04:29:46;46.10;;;21.38;;
3405;SDS011;10008;48.682;9.016;2022-12-18T04:32:11;46.03;;;21.83;;
3405;SDS011;10008;48.682;9.016;2022-12-18T04:34:39;39.92;;;18.95;;
3405;SDS011;10008;48.682;9.016;2022-12-18T04:37:05;41.63;;;20.70;;
3405;SDS011;10008;48.682;9.016;2022-12-18T04:39:31;41.63;;;20.30;;
3405;SDS011;10008;48.682;9.016;2022-12-18T04:42:03;42.97;;;20.50;;
3405;SDS011;10008;48.682;9.016;2022-12-18T04:44:28;42.90;;;19.23;;
3405;SDS011;10008;48.682;9.016;2022-12-18T04:46:54;41.00;;;20.27;;
3405;SDS011;10008;48.682;9.016;2022-12-18T04:49:20;48.17;;;20.65;;
3405;SDS011;10008;48.682;9.016;2022-12-18T04:51:46;41.00;;;18.60;;
3405;SDS011;10008;48.682;9.016;2022-12-18T04:54:12;45.43;;;21.33;;
3405;SDS011;10008;48.682;9.016;2022-12-18T04:56:38;44.60;;;19.50;;
3405;SDS011;10008;48.682;9.016;2022-12-18T04:59:03;47.80;;;21.33;;
3405;SDS011;10008;48.682;9.016;2022-12-18T05:01:29;39.63;;;19.25;;
3405;SDS011;10008;48.682;9.016;2022-12-18T05:03:58;46.42;;;20.48;;
3405;SDS011;10008;48.682;9.016;2022-12-18T05:06:24;41.97;;;19.33;;
3405;SDS011;10008;48.682;9.016;2022-12-18T05:08:49;39.60;;;19.40;;
3405;SDS011;10008;48.682;9.016;2022-12-18T05:11:15;39.17;;;18.77;;
3405;SDS011;10008;48.682;9.016;2022-12-18T05:13:42;44.75;;;18.42;;
3405;SDS011;10008;48.682;9.016;2022-12-18T05:16:09;36.28;;;18.48;;
3405;SDS011;10008;48.682;9.016;2022-12-18T05:18:35;45.72;;;20.55;;
3405;SDS011;10008;48.682;9.016;2022-12-18T05:21:01;43.25;;;19.60;;
3405;SDS011;10008;48.682;9.016;2022-12-18T05:23:28;43.30;;;18.38;;
3405;SDS011;10008;48.682;9.016;2022-12-18T05:25:54;43.42;;;20.05;;
3405;SDS011;10008;48.682;9.016;2022-12-18T05:28:22;42.33;;;19.77;;
3405;SDS011;10008;48.682;9.016;2022-12-18T05:30:50;38.58;;;19.13;;
3405;SDS011;10008;48.682;9.016;2022-12-18T05:33:17;41.42;;;19.88;;
3405;SDS011;10008;48.682;9.016;2022-12-18T05:35:43;38.55;;;17.95;;
3405;SDS011;10008;48.682;9.016;2022-12-18T05:38:09;40.20;;;19.07;;
3405;SDS011;10008;48.682;9.016;2022-12-18T05:40:35;42.47;;;19.17;;
3405;SDS011;10008;48.682;9.016;2022-12-18T05:43:04;40.47;;;18.33;;
3405;SDS011;10008;48.682;9.016;2022-12-18T05:45:30;41.65;;;19.23;;
3405;SDS011;10008;48.682;9.016;2022-12-18T05:47:56;37.07;;;17.77;;
3405;SDS011;10008;48.682;9.016;2022-12-18T05:50:22;44.60;;;20.40;;
3405;SDS011;10008;48.682;9.016;2022-12-18T05:52:48;43.00;;;20.07;;
3405;SDS011;10008;48.682;9.016;2022-12-18T05:55:13;39.80;;;18.23;;
3405;SDS011;10008;48.682;9.016;2022-12-18T05:57:39;47.60;;;19.00;;
3405;SDS011;10008;48.682;9.016;2022-12-18T06:00:05;41.77;;;19.30;;
3405;SDS011;10008;48.682;9.016;2022-12-18T06:02:37;45.95;;;19.52;;
3405;SDS011;10008;48.682;9.016;2022-12-18T06:05:03;40.07;;;17.27;;
3405;SDS011;10008;48.682;9.016;2022-12-18T06:07:30;41.33;;;18.80;;
3405;SDS011;10008;48.682;9.016;2022-12-18T06:09:55;42.97;;;18.23;;
3405;SDS011;10008;48.682;9.016;2022-12-18T06:12:21;36.03;;;17.20;;
3405;SDS011;10008;48.682;9.016;2022-12-18T06:14:47;38.30;;;18.37;;
3405;SDS011;10008;48.682;9.016;2022-12-18T06:17:12;40.67;;;17.03;;
3405;SDS011;10008;48.682;9.016;2022-12-18T06:19:38;41.03;;;18.50;;
3405;SDS011;10008;48.682;9.016;2022-12-18T06:22:04;39.83;;;18.53;;
3405;SDS011;10008;48.682;9.016;2022-12-18T06:24:30;40.30;;;17.73;;
3405;SDS011;10008;48.682;9.016;2022-12-18T06:26:55;38.80;;;18.80;;
3405;SDS011;10008;48.682;9.016;2022-12-18T06:29:21;43.03;;;18.33;;
3405;SDS011;10008;48.682;9.016;2022-12-18T06:31:47;37.10;;;17.70;;
3405;SDS011;10008;48.682;9.016;2022-12-18T06:34:12;42.53;;;18.57;;
3405;SDS011;10008;48.682;9.016;2022-12-18T06:36:38;42.00;;;19.13;;
3405;SDS011;10008;48.682;9.016;2022-12-18T06:39:04;44.60;;;19.40;;
3405;SDS011;10008;48.682;9.016;2022-12-18T06:41:30;45.13;;;19.07;;
3405;SDS011;10008;48.682;9.016;2022-12-18T06:43:57;40.00;;;18.83;;
3405;SDS011;10008;48.682;9.016;2022-12-18T06:46:22;41.40;;;19.58;;
3405;SDS011;10008;48.682;9.016;2022-12-18T06:48:51;41.70;;;18.20;;
3405;SDS011;10008;48.682;9.016;2022-12-18T06:51:21;43.70;;;18.70;;
3405;SDS011;10008;48.682;9.016;2022-12-18T06:53:48;48.17;;;21.02;;
3405;SDS011;10008;48.682;9.016;2022-12-18T06:56:15;42.55;;;19.48;;
3405;SDS011;10008;48.682;9.016;2022-12-18T06:58:41;43.63;;;20.00;;
3405;SDS011;10008;48.682;9.016;2022-12-18T07:01:08;42.25;;;18.17;;
3405;SDS011;10008;48.682;9.016;2022-12-18T07:03:36;38.50;;;17.58;;
3405;SDS011;10008;48.682;9.016;2022-12-18T07:06:02;42.85;;;19.95;;
3405;SDS011;10008;48.682;9.016;2022-12-18T07:08:29;39.95;;;18.23;;
3405;SDS011;10008;48.682;9.016;2022-12-18T07:10:55;35.10;;;16.70;;
3405;SDS011;10008;48.682;9.016;2022-12-18T07:13:21;38.90;;;18.57;;
3405;SDS011;10008;48.682;9.016;2022-12-18T07:15:47;43.33;;;18.90;;
3405;SDS011;10008;48.682;9.016;2022-12-18T07:18:13;38.53;;;18.37;;
3405;SDS011;10008;48.682;9.016;2022-12-18T07:20:38;42.83;;;19.23;;
3405;SDS011;10008;48.682;9.016;2022-12-18T07:23:04;38.50;;;16.53;;
3405;SDS011;10008;48.682;9.016;2022-12-18T07:25:36;39.50;;;17.13;;
3405;SDS011;10008;48.682;9.016;2022-12-18T07:28:03;37.88;;;17.52;;
3405;SDS011;10008;48.682;9.016;2022-12-18T07:30:29;43.37;;;17.87;;
3405;SDS011;10008;48.682;9.016;2022-12-18T07:32:55;37.87;;;17.57;;
3405;SDS011;10008;48.682;9.016;2022-12-18T07:35:20;43.83;;;20.50;;
3405;SDS011;10008;48.682;9.016;2022-12-18T07:37:46;46.80;;;21.00;;
3405;SDS011;10008;48.682;9.016;2022-12-18T07:40:12;42.80;;;19.73;;
3405;SDS011;10008;48.682;9.016;2022-12-18T07:42:37;42.80;;;19.07;;
3405;SDS011;10008;48.682;9.016;2022-12-18T07:45:03;49.97;;;21.37;;
3405;SDS011;10008;48.682;9.016;2022-12-18T07:47:30;43.47;;;21.40;;
3405;SDS011;10008;48.682;9.016;2022-12-18T07:49:58;49.50;;;22.88;;
3405;SDS011;10008;48.682;9.016;2022-12-18T07:52:24;46.93;;;21.70;;
3405;SDS011;10008;48.682;9.016;2022-12-18T07:54:49;47.70;;;22.00;;
3405;SDS011;10008;48.682;9.016;2022-12-18T07:57:16;44.67;;;20.67;;
3405;SDS011;10008;48.682;9.016;2022-12-18T07:59:42;48.50;;;20.75;;
3405;SDS011;10008;48.682;9.016;2022-12-18T08:02:07;44.13;;;20.60;;
3405;SDS011;10008;48.682;9.016;2022-12-18T08:04:35;46.67;;;21.13;;
3405;SDS011;10008;48.682;9.016;2022-12-18T08:07:00;45.85;;;21.25;;
3405;SDS011;10008;48.682;9.016;2022-12-18T08:09:28;43.50;;;20.90;;
3405;SDS011;10008;48.682;9.016;2022-12-18T08:11:53;48.53;;;22.00;;
3405;SDS011;10008;48.682;9.016;2022-12-18T08:14:19;45.03;;;21.77;;
3405;SDS011;10008;48.682;9.016;2022-12-18T08:16:45;42.67;;;21.00;;
3405;SDS011;10008;48.682;9.016;2022-12-18T08:19:11;47.60;;;21.50;;
3405;SDS011;10008;48.682;9.016;2022-12-18T08:21:40;47.30;;;22.20;;
3405;SDS011;10008;48.682;9.016;2022-12-18T08:24:06;50.53;;;23.67;;
3405;SDS011;10008;48.682;9.016;2022-12-18T08:26:34;51.50;;;23.52;;
3405;SDS011;10008;48.682;9.016;2022-12-18T08:29:00;49.47;;;23.50;;
3405;SDS011;10008;48.682;9.016;2022-12-18T08:31:26;45.83;;;21.63;;
3405;SDS011;10008;48.682;9.016;2022-12-18T08:33:53;54.03;;;24.10;;
3405;SDS011;10008;48.682;9.016;2022-12-18T08:36:19;44.80;;;21.67;;
3405;SDS011;10008;48.682;9.016;2022-12-18T08:38:46;48.78;;;22.67;;
3405;SDS011;10008;48.682;9.016;2022-12-18T08:41:12;50.97;;;23.00;;
3405;SDS011;10008;48.682;9.016;2022-12-18T08:43:39;46.08;;;23.05;;
3405;SDS011;10008;48.682;9.016;2022-12-18T08:46:27;45.27;;;21.67;;
3405;SDS011;10008;48.682;9.016;2022-12-18T08:48:57;50.23;;;22.57;;
3405;SDS011;10008;48.682;9.016;2022-12-18T08:51:23;42.23;;;20.83;;
3405;SDS011;10008;48.682;9.016;2022-12-18T08:53:48;46.40;;;22.17;;
3405;SDS011;10008;48.682;9.016;2022-12-18T08:56:14;50.17;;;22.60;;
3405;SDS011;10008;48.682;9.016;2022-12-18T08:58:41;51.47;;;22.93;;
3405;SDS011;10008;48.682;9.016;2022-12-18T09:01:07;48.90;;;22.20;;
3405;SDS011;10008;48.682;9.016;2022-12-18T09:03:34;45.37;;;21.67;;
3405;SDS011;10008;48.682;9.016;2022-12-18T09:06:01;52.10;;;22.80;;
3405;SDS011;10008;48.682;9.016;2022-12-18T09:08:27;52.20;;;23.77;;
3405;SDS011;10008;48.682;9.016;2022-12-18T09:10:53;48.40;;;22.83;;
3405;SDS011;10008;48.682;9.016;2022-12-18T09:13:18;48.07;;;22.40;;
3405;SDS011;10008;48.682;9.016;2022-12-18T09:15:45;50.27;;;23.20;;
3405;SDS011;10008;48.682;9.016;2022-12-18T09:18:16;50.00;;;22.10;;
3405;SDS011;10008;48.682;9.016;2022-12-18T09:20:43;51.50;;;24.90;;
3405;SDS011;10008;48.682;9.016;2022-12-18T09:23:10;51.40;;;24.63;;
3405;SDS011;10008;48.682;9.016;2022-12-18T09:25:36;50.17;;;23.80;;
3405;SDS011;10008;48.682;9.016;2022-12-18T09:28:04;46.93;;;23.37;;
3405;SDS011;10008;48.682;9.016;2022-12-18T09:30:41;51.97;;;22.60;;
3405;SDS011;10008;48.682;9.016;2022-12-18T09:33:09;48.80;;;24.70;;
3405;SDS011;10008;48.682;9.016;2022-12-18T09:35:38;48.53;;;22.50;;
3405;SDS011;10008;48.682;9.016;2022-12-18T09:38:05;53.00;;;25.80;;
3405;SDS011;10008;48.682;9.016;2022-12-18T09:40:36;54.63;;;25.00;;
3405;SDS011;10008;48.682;9.016;2022-12-18T09:43:09;48.33;;;22.47;;
3405;SDS011;10008;48.682;9.016;2022-12-18T09:45:44;56.77;;;25.43;;
3405;SDS011;10008;48.682;9.016;2022-12-18T09:48:25;48.53;;;23.53;;
3405;SDS011;10008;48.682;9.016;2022-12-18T09:51:02;47.67;;;23.27;;
3405;SDS011;10008;48.682;9.016;2022-12-18T09:53:36;50.70;;;23.80;;
3405;SDS011;10008;48.682;9.016;2022-12-18T09:56:03;45.53;;;22.70;;
3405;SDS011;10008;48.682;9.016;2022-12-18T09:58:40;45.60;;;22.63;;
3405;SDS011;10008;48.682;9.016;2022-12-18T10:01:14;48.03;;;23.13;;
3405;SDS011;10008;48.682;9.016;2022-12-18T10:03:45;47.13;;;22.40;;
3405;SDS011;10008;48.682;9.016;2022-12-18T10:06:27;44.43;;;22.10;;
3405;SDS011;10008;48.682;9.016;2022-12-18T10:19:47;46.73;;;22.90;;
3405;SDS011;10008;48.682;9.016;2022-12-18T10:27:39;50.07;;;23.63;;
3405;SDS011;10008;48.682;9.016;2022-12-18T10:30:12;52.40;;;25.80;;
3405;SDS011;10008;48.682;9.016;2022-12-18T10:32:44;50.87;;;23.53;;
3405;SDS011;10008;48.682;9.016;2022-12-18T10:35:23;53.07;;;24.77;;
3405;SDS011;10008;48.682;9.016;2022-12-18T10:41:03;49.57;;;24.03;;
3405;SDS011;10008;48.682;9.016;2022-12-18T10:43:35;46.40;;;22.40;;
3405;SDS011;10008;48.682;9.016;2022-12-18T10:48:28;48.07;;;23.10;;
3405;SDS011;10008;48.682;9.016;2022-12-18T10:50:55;49.40;;;24.97;;
3405;SDS011;10008;48.682;9.016;2022-12-18T10:53:23;46.90;;;21.47;;
3405;SDS011;10008;48.682;9.016;2022-12-18T10:55:51;48.80;;;23.60;;
3405;SDS011;10008;48.682;9.016;2022-12-18T10:58:24;46.90;;;22.13;;
3405;SDS011;10008;48.682;9.016;2022-12-18T11:01:17;50.07;;;22.57;;
3405;SDS011;10008;48.682;9.016;2022-12-18T11:06:20;40.67;;;20.00;;
3405;SDS011;10008;48.682;9.016;2022-12-18T11:12:03;46.40;;;21.80;;
3405;SDS011;10008;48.682;9.016;2022-12-18T11:20:05;40.80;;;20.30;;
3405;SDS011;10008;48.682;9.016;2022-12-18T11:22:45;47.10;;;22.67;;
3405;SDS011;10008;48.682;9.016;2022-12-18T11:25:31;45.40;;;22.57;;
3405;SDS011;10008;48.682;9.016;2022-12-18T11:27:59;46.40;;;21.27;;
3405;SDS011;10008;48.682;9.016;2022-12-18T11:30:31;43.67;;;21.17;;
3405;SDS011;10008;48.682;9.016;2022-12-18T11:33:00;42.37;;;20.60;;
3405;SDS011;10008;48.682;9.016;2022-12-18T11:35:39;39.03;;;20.17;;
3405;SDS011;10008;48.682;9.016;2022-12-18T11:38:26;44.57;;;22.23;;
3405;SDS011;10008;48.682;9.016;2022-12-18T11:44:01;46.03;;;22.97;;
3405;SDS011;10008;48.682;9.016;2022-12-18T11:49:11;43.97;;;22.50;;
3405;SDS011;10008;48.682;9.016;2022-12-18T11:54:15;45.73;;;22.27;;
3405;SDS011;10008;48.682;9.016;2022-12-18T11:56:49;43.57;;;22.50;;
3405;SDS011;10008;48.682;9.016;2022-12-18T11:59:43;46.30;;;22.87;;
3405;SDS011;10008;48.682;9.016;2022-12-18T12:02:36;47.70;;;22.90;;
3405;SDS011;10008;48.682;9.016;2022-12-18T12:05:14;40.57;;;19.60;;
3405;SDS011;10008;48.682;9.016;2022-12-18T12:22:03;43.57;;;20.70;;
3405;SDS011;10008;48.682;9.016;2022-12-18T12:25:15;43.30;;;21.30;;
3405;SDS011;10008;48.682;9.016;2022-12-18T12:27:49;44.23;;;22.37;;
3405;SDS011;10008;48.682;9.016;2022-12-18T12:36:02;49.10;;;24.50;;
3405;SDS011;10008;48.682;9.016;2022-12-18T12:38:51;45.90;;;24.00;;
3405;SDS011;10008;48.682;9.016;2022-12-18T12:41:26;43.55;;;23.92;;
3405;SDS011;10008;48.682;9.016;2022-12-18T12:44:17;41.00;;;21.57;;
3405;SDS011;10008;48.682;9.016;2022-12-18T12:46:54;38.37;;;20.57;;
3405;SDS011;10008;48.682;9.016;2022-12-18T12:49:24;38.50;;;19.63;;
3405;SDS011;10008;48.682;9.016;2022-12-18T12:51:54;49.30;;;24.37;;
3405;SDS011;10008;48.682;9.016;2022-12-18T12:54:39;38.30;;;19.57;;
3405;SDS011;10008;48.682;9.016;2022-12-18T12:57:10;38.05;;;21.17;;
3405;SDS011;10008;48.682;9.016;2022-12-18T13:02:39;40.43;;;21.00;;
3405;SDS011;10008;48.682;9.016;2022-12-18T13:05:19;47.47;;;24.80;;
3405;SDS011;10008;48.682;9.016;2022-12-18T13:08:09;47.70;;;24.23;;
3405;SDS011;10008;48.682;9.016;2022-12-18T13:10:43;35.90;;;18.10;;
3405;SDS011;10008;48.682;9.016;2022-12-18T13:13:12;35.90;;;18.70;;
3405;SDS011;10008;48.682;9.016;2022-12-18T13:20:44;36.60;;;18.40;;
3405;SDS011;10008;48.682;9.016;2022-12-18T13:25:52;40.00;;;20.40;;
3405;SDS011;10008;48.682;9.016;2022-12-18T13:34:22;39.07;;;20.60;;
3405;SDS011;10008;48.682;9.016;2022-12-18T13:36:49;38.97;;;19.10;;
3405;SDS011;10008;48.682;9.016;2022-12-18T13:41:48;40.60;;;20.83;;
3405;SDS011;10008;48.682;9.016;2022-12-18T13:47:05;38.20;;;20.37;;
3405;SDS011;10008;48.682;9.016;2022-12-18T13:49:51;45.07;;;22.60;;
3405;SDS011;10008;48.682;9.016;2022-12-18T13:52:21;45.73;;;22.33;;
3405;SDS011;10008;48.682;9.016;2022-12-18T13:54:53;43.47;;;21.87;;
3405;SDS011;10008;48.682;9.016;2022-12-18T14:00:27;49.67;;;25.27;;
3405;SDS011;10008;48.682;9.016;2022-12-18T14:02:55;40.80;;;21.13;;
3405;SDS011;10008;48.682;9.016;2022-12-18T14:07:52;44.07;;;23.10;;
3405;SDS011;10008;48.682;9.016;2022-12-18T14:10:18;46.03;;;23.47;;
3405;SDS011;10008;48.682;9.016;2022-12-18T14:12:47;44.60;;;23.17;;
3405;SDS011;10008;48.682;9.016;2022-12-18T14:17:55;53.27;;;24.07;;
3405;SDS011;10008;48.682;9.016;2022-12-18T14:20:26;46.07;;;23.60;;
3405;SDS011;10008;48.682;9.016;2022-12-18T14:22:54;50.60;;;24.87;;
3405;SDS011;10008;48.682;9.016;2022-12-18T14:30:35;49.20;;;25.10;;
3405;SDS011;10008;48.682;9.016;2022-12-18T14:35:52;54.03;;;25.27;;
3405;SDS011;10008;48.682;9.016;2022-12-18T14:38:35;48.47;;;23.87;;
3405;SDS011;10008;48.682;9.016;2022-12-18T14:41:04;49.60;;;23.77;;
3405;SDS011;10008;48.682;9.016;2022-12-18T14:43:32;51.80;;;24.90;;
3405;SDS011;10008;48.682;9.016;2022-12-18T14:46:00;46.13;;;25.50;;
3405;SDS011;10008;48.682;9.016;2022-12-18T14:51:03;48.00;;;24.70;;
3405;SDS011;10008;48.682;9.016;2022-12-18T14:56:10;47.73;;;24.80;;
3405;SDS011;10008;48.682;9.016;2022-12-18T14:58:44;53.00;;;25.03;;
3405;SDS011;10008;48.682;9.016;2022-12-18T15:01:17;48.70;;;23.10;;
3405;SDS011;10008;48.682;9.016;2022-12-18T15:03:49;51.87;;;25.30;;
3405;SDS011;10008;48.682;9.016;2022-12-18T15:06:26;49.57;;;25.20;;
3405;SDS011;10008;48.682;9.016;2022-12-18T15:08:54;53.93;;;27.43;;
3405;SDS011;10008;48.682;9.016;2022-12-18T15:11:33;48.20;;;26.13;;
3405;SDS011;10008;48.682;9.016;2022-12-18T15:16:54;53.67;;;27.50;;
3405;SDS011;10008;48.682;9.016;2022-12-18T15:19:21;61.33;;;30.60;;
3405;SDS011;10008;48.682;9.016;2022-12-18T15:21:51;55.33;;;29.33;;
3405;SDS011;10008;48.682;9.016;2022-12-18T15:24:22;57.03;;;27.90;;
3405;SDS011;10008;48.682;9.016;2022-12-18T15:26:52;52.43;;;27.13;;
3405;SDS011;10008;48.682;9.016;2022-12-18T15:29:21;55.17;;;27.63;;
3405;SDS011;10008;48.682;9.016;2022-12-18T15:34:27;59.50;;;29.63;;
3405;SDS011;10008;48.682;9.016;2022-12-18T15:36:53;55.10;;;26.93;;
3405;SDS011;10008;48.682;9.016;2022-12-18T15:39:19;54.60;;;27.80;;
3405;SDS011;10008;48.682;9.016;2022-12-18T15:41:44;66.83;;;32.37;;
3405;SDS011;10008;48.682;9.016;2022-12-18T15:44:32;77.73;;;38.50;;
3405;SDS011;10008;48.682;9.016;2022-12-18T15:46:58;58.97;;;30.67;;
3405;SDS011;10008;48.682;9.016;2022-12-18T15:49:24;58.27;;;30.63;;
3405;SDS011;10008;48.682;9.016;2022-12-18T15:51:54;55.23;;;28.40;;
3405;SDS011;10008;48.682;9.016;2022-12-18T15:54:23;60.53;;;30.30;;
3405;SDS011;10008;48.682;9.016;2022-12-18T15:57:11;58.27;;;29.27;;
3405;SDS011;10008;48.682;9.016;2022-12-18T15:59:52;60.37;;;30.73;;
3405;SDS011;10008;48.682;9.016;2022-12-18T16:02:21;67.87;;;31.73;;
3405;SDS011;10008;48.682;9.016;2022-12-18T16:04:48;60.30;;;31.70;;
3405;SDS011;10008;48.682;9.016;2022-12-18T16:07:15;61.33;;;30.37;;
3405;SDS011;10008;48.682;9.016;2022-12-18T16:09:40;58.20;;;29.33;;
3405;SDS011;10008;48.682;9.016;2022-12-18T16:12:10;61.67;;;30.80;;
3405;SDS011;10008;48.682;9.016;2022-12-18T16:14:44;61.70;;;32.40;;
3405;SDS011;10008;48.682;9.016;2022-12-18T16:17:10;64.47;;;32.70;;
3405;SDS011;10008;48.682;9.016;2022-12-18T16:19:37;63.57;;;32.00;;
3405;SDS011;10008;48.682;9.016;2022-12-18T16:22:03;85.90;;;39.90;;
3405;SDS011;10008;48.682;9.016;2022-12-18T16:24:30;91.80;;;43.00;;
3405;SDS011;10008;48.682;9.016;2022-12-18T16:26:58;67.57;;;33.73;;
3405;SDS011;10008;48.682;9.016;2022-12-18T16:29:25;68.37;;;32.87;;
3405;SDS011;10008;48.682;9.016;2022-12-18T16:31:53;61.77;;;30.77;;
3405;SDS011;10008;48.682;9.016;2022-12-18T16:36:56;52.33;;;26.97;;
3405;SDS011;10008;48.682;9.016;2022-12-18T16:39:24;60.17;;;29.47;;
3405;SDS011;10008;48.682;9.016;2022-12-18T16:41:51;58.47;;;31.87;;
3405;SDS011;10008;48.682;9.016;2022-12-18T16:44:17;58.77;;;28.20;;
3405;SDS011;10008;48.682;9.016;2022-12-18T16:46:43;64.80;;;31.57;;
3405;SDS011;10008;48.682;9.016;2022-12-18T16:49:12;59.33;;;31.20;;
3405;SDS011;10008;48.682;9.016;2022-12-18T16:51:42;61.83;;;29.40;;
3405;SDS011;10008;48.682;9.016;2022-12-18T16:54:08;58.43;;;28.70;;
3405;SDS011;10008;48.682;9.016;2022-12-18T16:56:34;54.53;;;28.93;;
3405;SDS011;10008;48.682;9.016;2022-12-18T16:59:00;53.43;;;27.10;;
3405;SDS011;10008;48.682;9.016;2022-12-18T17:01:28;55.60;;;25.93;;
3405;SDS011;10008;48.682;9.016;2022-12-18T17:03:58;51.43;;;26.60;;
3405;SDS011;10008;48.682;9.016;2022-12-18T17:06:27;51.03;;;25.47;;
3405;SDS011;10008;48.682;9.016;2022-12-18T17:08:55;55.17;;;26.53;;
3405;SDS011;10008;48.682;9.016;2022-12-18T17:11:26;54.63;;;26.20;;
3405;SDS011;10008;48.682;9.016;2022-12-18T17:13:53;51.73;;;25.27;;